createdAt,value
2023-03-22T00:01:23.753Z,0.90
2023-03-22T00:03:52.702Z,1.00
2023-03-22T00:06:20.443Z,1.20
2023-03-22T00:08:51.240Z,1.92
2023-03-22T00:11:19.557Z,1.23
2023-03-22T00:13:47.532Z,1.27
2023-03-22T00:16:17.579Z,1.17
2023-03-22T00:18:45.623Z,1.05
2023-03-22T00:21:15.584Z,1.40
2023-03-22T00:23:43.017Z,1.25
2023-03-22T00:26:13.944Z,0.98
2023-03-22T00:28:41.878Z,1.20
2023-03-22T00:31:09.744Z,0.90
2023-03-22T00:33:37.654Z,1.27
2023-03-22T00:36:11.111Z,1.33
2023-03-22T00:38:42.946Z,2.47
2023-03-22T00:41:19.489Z,1.25
2023-03-22T00:43:48.080Z,1.00
2023-03-22T00:46:17.005Z,1.10
2023-03-22T00:48:44.056Z,1.65
2023-03-22T00:51:12.465Z,2.92
2023-03-22T00:53:42.811Z,1.02
2023-03-22T00:56:14.330Z,1.10
2023-03-22T00:59:05.567Z,1.08
2023-03-22T01:01:32.834Z,1.33
2023-03-22T01:04:00.178Z,1.30
2023-03-22T01:06:27.713Z,1.40
2023-03-22T01:08:55.302Z,1.52
2023-03-22T01:11:22.996Z,1.30
2023-03-22T01:13:50.439Z,1.27
2023-03-22T01:16:18.306Z,2.05
2023-03-22T01:18:45.549Z,1.25
2023-03-22T01:21:13.529Z,1.20
2023-03-22T01:23:40.942Z,1.67
2023-03-22T01:26:08.012Z,1.77
2023-03-22T01:28:35.024Z,1.10
2023-03-22T01:31:03.213Z,1.65
2023-03-22T01:33:31.405Z,1.45
2023-03-22T01:35:59.581Z,1.95
2023-03-22T01:38:27.951Z,2.25
2023-03-22T01:40:58.782Z,1.92
2023-03-22T01:43:29.044Z,1.92
2023-03-22T01:45:57.941Z,2.60
2023-03-22T01:48:55.822Z,2.70
2023-03-22T01:51:28.755Z,2.42
2023-03-22T01:54:40.656Z,2.60
2023-03-22T01:57:21.159Z,2.97
2023-03-22T01:59:50.353Z,3.42
2023-03-22T02:05:22.326Z,3.47
2023-03-22T02:07:50.937Z,3.08
2023-03-22T02:10:24.892Z,2.65
2023-03-22T02:13:22.610Z,3.38
2023-03-22T02:16:39.426Z,3.20
2023-03-22T02:19:45.768Z,3.65
2023-03-22T02:25:21.168Z,3.88
2023-03-22T02:28:06.667Z,2.75
2023-03-22T02:31:14.720Z,3.50
2023-03-22T02:34:07.061Z,3.03
2023-03-22T02:36:46.101Z,3.83
2023-03-22T02:39:28.485Z,4.20
2023-03-22T02:42:13.374Z,3.47
2023-03-22T02:44:43.896Z,3.45
2023-03-22T02:47:42.691Z,4.00
2023-03-22T02:50:20.866Z,3.25
2023-03-22T02:52:56.154Z,2.97
2023-03-22T02:55:39.471Z,2.97
2023-03-22T02:58:39.441Z,3.65
2023-03-22T03:01:15.603Z,3.15
2023-03-22T03:03:48.235Z,3.70
2023-03-22T03:06:19.774Z,3.17
2023-03-22T03:08:50.877Z,2.83
2023-03-22T03:11:18.720Z,2.38
2023-03-22T03:13:49.185Z,2.60
2023-03-22T03:16:20.782Z,3.17
2023-03-22T03:18:57.462Z,2.65
2023-03-22T03:21:37.513Z,2.70
2023-03-22T03:24:17.709Z,3.75
2023-03-22T03:27:04.746Z,2.80
2023-03-22T03:29:46.578Z,2.38
2023-03-22T03:32:26.021Z,3.67
2023-03-22T03:34:59.582Z,3.22
2023-03-22T03:37:47.261Z,3.83
2023-03-22T03:40:24.954Z,2.20
2023-03-22T03:42:54.298Z,2.15
2023-03-22T03:45:22.263Z,2.55
2023-03-22T03:47:57.024Z,3.17
2023-03-22T03:50:26.169Z,3.00
2023-03-22T03:52:56.386Z,2.55
2023-03-22T03:55:24.685Z,2.88
2023-03-22T03:57:51.694Z,2.83
2023-03-22T04:00:19.169Z,2.88
2023-03-22T04:03:06.445Z,2.38
2023-03-22T04:05:53.379Z,2.95
2023-03-22T04:08:20.455Z,2.42
2023-03-22T04:10:51.979Z,2.72
2023-03-22T04:13:24.864Z,3.65
2023-03-22T04:15:55.265Z,2.88
2023-03-22T04:18:23.059Z,2.38
2023-03-22T04:20:53.742Z,2.20
2023-03-22T04:23:23.575Z,1.83
2023-03-22T04:25:51.161Z,2.60
2023-03-22T04:28:30.040Z,2.08
2023-03-22T04:30:57.478Z,2.20
2023-03-22T04:33:47.406Z,2.15
2023-03-22T04:36:39.334Z,2.33
2023-03-22T04:41:59.606Z,2.92
2023-03-22T04:44:27.197Z,2.60
2023-03-22T04:46:54.230Z,1.70
2023-03-22T04:49:21.916Z,2.20
2023-03-22T04:51:49.070Z,1.90
2023-03-22T04:54:51.102Z,2.53
2023-03-22T04:57:18.146Z,2.00
2023-03-22T04:59:47.917Z,1.83
2023-03-22T05:02:14.821Z,2.03
2023-03-22T05:04:43.840Z,1.80
2023-03-22T05:07:20.526Z,1.90
2023-03-22T05:09:52.514Z,3.30
2023-03-22T05:12:19.708Z,1.95
2023-03-22T05:14:52.339Z,1.70
2023-03-22T05:17:23.882Z,1.80
2023-03-22T05:19:54.626Z,1.98
2023-03-22T05:22:22.514Z,1.55
2023-03-22T05:24:51.316Z,2.00
2023-03-22T05:27:31.293Z,2.22
2023-03-22T05:30:11.943Z,2.05
2023-03-22T05:32:50.374Z,2.17
2023-03-22T05:35:24.080Z,1.73
2023-03-22T05:37:54.330Z,2.00
2023-03-22T05:40:22.137Z,1.40
2023-03-22T05:42:49.773Z,1.30
2023-03-22T05:45:22.181Z,2.08
2023-03-22T05:47:59.141Z,1.67
2023-03-22T05:50:27.699Z,1.75
2023-03-22T05:52:54.698Z,1.38
2023-03-22T05:55:30.317Z,2.35
2023-03-22T05:58:02.897Z,2.10
2023-03-22T06:00:32.325Z,1.35
2023-03-22T06:03:18.315Z,1.30
2023-03-22T06:05:54.923Z,1.38
2023-03-22T06:08:34.103Z,1.10
2023-03-22T06:11:01.431Z,1.13
2023-03-22T06:13:28.464Z,1.48
2023-03-22T06:15:56.050Z,1.55
2023-03-22T06:18:25.592Z,2.17
2023-03-22T06:21:02.020Z,1.35
2023-03-22T06:23:29.187Z,1.17
2023-03-22T06:25:56.302Z,1.45
2023-03-22T06:28:26.609Z,1.40
2023-03-22T06:30:54.916Z,1.60
2023-03-22T06:33:29.788Z,1.30
2023-03-22T06:36:07.178Z,1.30
2023-03-22T06:38:49.210Z,1.25
2023-03-22T06:41:16.085Z,1.05
2023-03-22T06:43:43.098Z,1.17
2023-03-22T06:46:23.715Z,1.55
2023-03-22T06:49:00.314Z,1.30
2023-03-22T06:51:27.471Z,1.30
2023-03-22T06:53:55.727Z,1.52
2023-03-22T06:56:23.083Z,0.95
2023-03-22T06:58:54.649Z,1.40
2023-03-22T07:01:22.102Z,1.45
2023-03-22T07:03:49.844Z,1.38
2023-03-22T07:06:18.888Z,2.45
2023-03-22T07:08:50.875Z,1.08
2023-03-22T07:11:23.014Z,1.15
2023-03-22T07:13:58.665Z,1.58
2023-03-22T07:16:32.332Z,1.30
2023-03-22T07:19:02.027Z,1.10
2023-03-22T07:21:29.163Z,1.80
2023-03-22T07:24:01.630Z,1.40
2023-03-22T07:26:30.863Z,1.35
2023-03-22T07:28:59.748Z,1.30
2023-03-22T07:31:31.619Z,1.15
2023-03-22T07:34:04.774Z,1.63
2023-03-22T07:36:38.381Z,2.00
2023-03-22T07:39:09.318Z,1.65
2023-03-22T07:41:40.932Z,1.10
2023-03-22T07:44:25.926Z,1.33
2023-03-22T07:47:30.630Z,1.27
2023-03-22T07:50:23.679Z,2.10
2023-03-22T07:52:56.093Z,1.45
2023-03-22T07:55:23.109Z,1.15
2023-03-22T07:57:51.244Z,2.58
2023-03-22T08:00:19.533Z,1.10
2023-03-22T08:02:56.753Z,1.77
2023-03-22T08:05:49.823Z,2.00
2023-03-22T08:08:17.545Z,1.38
2023-03-22T08:10:50.806Z,1.10
2023-03-22T08:13:18.269Z,1.10
2023-03-22T08:15:45.879Z,1.17
2023-03-22T08:18:13.207Z,1.50
2023-03-22T08:20:41.355Z,1.35
2023-03-22T08:23:16.304Z,1.25
2023-03-22T08:26:03.339Z,1.45
2023-03-22T08:28:34.472Z,2.20
2023-03-22T08:31:01.665Z,1.15
2023-03-22T08:33:29.086Z,1.25
2023-03-22T08:36:07.426Z,1.38
2023-03-22T08:38:38.703Z,1.00
2023-03-22T08:41:07.151Z,1.42
2023-03-22T08:43:34.320Z,1.27
2023-03-22T08:46:01.443Z,1.25
2023-03-22T08:48:30.831Z,1.38
2023-03-22T08:51:22.278Z,1.10
2023-03-22T08:54:07.006Z,1.20
2023-03-22T08:56:59.168Z,1.38
2023-03-22T09:00:02.067Z,1.10
2023-03-22T09:02:39.068Z,1.27
2023-03-22T09:05:06.649Z,1.40
2023-03-22T09:07:34.139Z,1.70
2023-03-22T09:10:19.419Z,1.02
2023-03-22T09:12:49.441Z,1.20
2023-03-22T09:15:16.825Z,0.75
2023-03-22T09:17:48.058Z,0.93
2023-03-22T09:20:15.753Z,1.42
2023-03-22T09:22:45.949Z,2.40
2023-03-22T09:25:16.015Z,1.35
2023-03-22T09:27:46.481Z,1.63
2023-03-22T09:30:13.856Z,1.10
2023-03-22T09:32:41.542Z,1.20
2023-03-22T09:35:11.131Z,1.00
2023-03-22T09:37:53.543Z,1.20
2023-03-22T09:40:25.370Z,1.13
2023-03-22T09:42:57.664Z,1.08
2023-03-22T09:48:03.728Z,1.05
2023-03-22T09:50:33.157Z,1.17
2023-03-22T09:53:01.155Z,1.45
2023-03-22T09:55:52.353Z,1.30
2023-03-22T09:58:29.414Z,1.15
2023-03-22T10:01:31.384Z,1.20
2023-03-22T10:04:26.668Z,1.15
2023-03-22T10:07:40.313Z,1.25
2023-03-22T10:10:20.257Z,1.02
2023-03-22T10:12:54.089Z,1.00
2023-03-22T10:15:41.272Z,1.00
2023-03-22T10:18:15.907Z,1.45
2023-03-22T10:20:52.215Z,1.40
2023-03-22T10:23:27.412Z,1.10
2023-03-22T10:25:58.866Z,0.95
2023-03-22T10:28:34.820Z,1.30
2023-03-22T10:31:04.413Z,0.98
2023-03-22T10:33:40.007Z,1.20
2023-03-22T10:36:13.179Z,1.00
2023-03-22T10:38:49.688Z,0.90
2023-03-22T10:41:19.376Z,1.08
2023-03-22T10:43:50.467Z,1.40
2023-03-22T10:46:23.622Z,1.40
2023-03-22T10:48:54.251Z,0.73
2023-03-22T10:51:29.779Z,3.50
2023-03-22T10:53:58.291Z,1.20
2023-03-22T10:56:25.651Z,1.17
2023-03-22T10:58:54.708Z,0.90
2023-03-22T11:01:39.977Z,1.80
2023-03-22T11:04:14.443Z,1.30
2023-03-22T11:06:52.360Z,1.15
2023-03-22T11:09:23.736Z,1.20
2023-03-22T11:11:56.700Z,1.25
2023-03-22T11:14:27.886Z,1.40
2023-03-22T11:17:07.073Z,1.17
2023-03-22T11:19:36.629Z,0.75
2023-03-22T11:22:07.822Z,1.27
2023-03-22T11:24:35.748Z,1.60
2023-03-22T11:27:06.969Z,0.90
2023-03-22T11:29:43.348Z,1.17
2023-03-22T11:32:30.231Z,1.10
2023-03-22T11:35:20.000Z,0.98
2023-03-22T11:37:49.755Z,0.95
2023-03-22T11:40:29.314Z,0.85
2023-03-22T11:43:20.723Z,0.77
2023-03-22T11:45:51.937Z,0.80
2023-03-22T11:48:23.400Z,1.00
2023-03-22T11:50:55.868Z,2.33
2023-03-22T11:53:26.293Z,1.13
2023-03-22T11:55:57.882Z,0.75
2023-03-22T11:58:28.334Z,1.63
2023-03-22T12:00:59.704Z,0.80
2023-03-22T12:03:39.878Z,1.00
2023-03-22T12:06:24.413Z,1.00
2023-03-22T12:09:07.912Z,1.77
2023-03-22T12:11:41.867Z,0.82
2023-03-22T12:14:30.020Z,0.93
2023-03-22T12:17:06.961Z,0.90
2023-03-22T12:19:51.317Z,2.45
2023-03-22T12:22:31.158Z,0.90
2023-03-22T12:25:00.207Z,0.75
2023-03-22T12:27:37.883Z,1.00
2023-03-22T12:30:14.147Z,0.80
2023-03-22T12:32:49.160Z,0.68
2023-03-22T12:35:29.667Z,0.80
2023-03-22T12:38:00.344Z,1.40
2023-03-22T12:40:37.254Z,1.05
2023-03-22T12:43:08.382Z,1.88
2023-03-22T12:45:42.881Z,0.90
2023-03-22T12:48:41.427Z,0.98
2023-03-22T12:51:11.975Z,1.90
2023-03-22T12:54:00.428Z,0.77
2023-03-22T12:56:44.396Z,0.90
2023-03-22T12:59:29.129Z,0.85
2023-03-22T13:02:16.843Z,0.88
2023-03-22T13:04:46.811Z,0.90
2023-03-22T13:07:13.730Z,1.17
2023-03-22T13:09:51.138Z,0.80
2023-03-22T13:12:18.558Z,0.90
2023-03-22T13:15:00.295Z,1.00
2023-03-22T13:17:27.585Z,0.95
2023-03-22T13:19:58.499Z,0.85
2023-03-22T13:22:50.460Z,0.70
2023-03-22T13:25:18.889Z,1.02
2023-03-22T13:27:46.050Z,1.02
2023-03-22T13:30:24.826Z,1.15
2023-03-22T13:33:07.238Z,0.75
2023-03-22T13:35:51.319Z,1.10
2023-03-22T13:38:27.711Z,1.00
2023-03-22T13:41:06.557Z,0.98
2023-03-22T13:43:39.683Z,1.00
2023-03-22T13:46:12.297Z,1.95
2023-03-22T13:48:49.605Z,1.00
2023-03-22T13:51:34.726Z,0.80
2023-03-22T13:54:13.738Z,1.20
2023-03-22T13:56:43.805Z,1.20
2023-03-22T13:59:30.027Z,1.08
2023-03-22T14:02:27.793Z,1.13
2023-03-22T14:05:17.671Z,1.50
2023-03-22T14:07:52.905Z,1.80
2023-03-22T14:10:28.253Z,1.65
2023-03-22T14:13:19.398Z,1.17
2023-03-22T14:15:50.805Z,0.90
2023-03-22T14:18:30.185Z,1.10
2023-03-22T14:21:30.569Z,1.02
